sensor_id;sensor_type;location;lat;lon;timestamp;temperature;humidity
9768;DHT22;4923;52.520;13.494;2023-10-09T00:01:45;10.60;99.90
9768;DHT22;4923;52.520;13.494;2023-10-09T00:04:32;10.60;99.90
9768;DHT22;4923;52.520;13.494;2023-10-09T00:07:22;10.60;99.90
9768;DHT22;4923;52.520;13.494;2023-10-09T00:10:16;10.60;99.90
9768;DHT22;4923;52.520;13.494;2023-10-09T00:13:04;10.50;99.90
9768;DHT22;4923;52.520;13.494;2023-10-09T00:15:56;10.50;99.90
9768;DHT22;4923;52.520;13.494;2023-10-09T00:18:46;10.50;99.90
9768;DHT22;4923;52.520;13.494;2023-10-09T00:21:34;10.50;99.90
9768;DHT22;4923;52.520;13.494;2023-10-09T00:24:24;10.50;99.90
9768;DHT22;4923;52.520;13.494;2023-10-09T00:27:11;10.40;99.90
9768;DHT22;4923;52.520;13.494;2023-10-09T00:29:58;10.40;99.90
9768;DHT22;4923;52.520;13.494;2023-10-09T00:32:47;10.40;99.90
9768;DHT22;4923;52.520;13.494;2023-10-09T00:35:44;10.40;99.90
9768;DHT22;4923;52.520;13.494;2023-10-09T00:38:40;10.40;99.90
9768;DHT22;4923;52.520;13.494;2023-10-09T00:41:31;10.40;99.90
9768;DHT22;4923;52.520;13.494;2023-10-09T00:44:21;10.40;99.90
9768;DHT22;4923;52.520;13.494;2023-10-09T00:47:09;10.40;99.90
9768;DHT22;4923;52.520;13.494;2023-10-09T00:50:10;10.40;99.90
9768;DHT22;4923;52.520;13.494;2023-10-09T00:53:06;10.40;99.90
9768;DHT22;4923;52.520;13.494;2023-10-09T00:55:58;10.40;99.90
9768;DHT22;4923;52.520;13.494;2023-10-09T00:58:52;10.40;99.90
9768;DHT22;4923;52.520;13.494;2023-10-09T01:01:45;10.40;99.90
9768;DHT22;4923;52.520;13.494;2023-10-09T01:04:41;10.40;99.90
9768;DHT22;4923;52.520;13.494;2023-10-09T01:07:31;10.40;99.90
9768;DHT22;4923;52.520;13.494;2023-10-09T01:10:18;10.30;99.90
9768;DHT22;4923;52.520;13.494;2023-10-09T01:13:05;10.40;99.90
9768;DHT22;4923;52.520;13.494;2023-10-09T01:15:55;10.30;99.90
9768;DHT22;4923;52.520;13.494;2023-10-09T01:18:43;10.30;99.90
9768;DHT22;4923;52.520;13.494;2023-10-09T01:21:34;10.30;99.90
9768;DHT22;4923;52.520;13.494;2023-10-09T01:24:22;10.30;99.90
9768;DHT22;4923;52.520;13.494;2023-10-09T01:27:12;10.20;99.90
9768;DHT22;4923;52.520;13.494;2023-10-09T01:30:00;10.20;99.90
9768;DHT22;4923;52.520;13.494;2023-10-09T01:32:47;10.20;99.90
9768;DHT22;4923;52.520;13.494;2023-10-09T01:35:34;10.20;99.90
9768;DHT22;4923;52.520;13.494;2023-10-09T01:38:24;10.20;99.90
9768;DHT22;4923;52.520;13.494;2023-10-09T01:41:27;10.20;99.90
9768;DHT22;4923;52.520;13.494;2023-10-09T01:44:19;10.20;99.90
9768;DHT22;4923;52.520;13.494;2023-10-09T01:47:08;10.10;99.90
9768;DHT22;4923;52.520;13.494;2023-10-09T01:49:59;10.10;99.90
9768;DHT22;4923;52.520;13.494;2023-10-09T01:52:50;10.10;99.90
9768;DHT22;4923;52.520;13.494;2023-10-09T01:55:38;10.10;99.90
9768;DHT22;4923;52.520;13.494;2023-10-09T01:58:27;10.00;99.90
9768;DHT22;4923;52.520;13.494;2023-10-09T02:01:18;10.00;99.90
9768;DHT22;4923;52.520;13.494;2023-10-09T02:04:06;10.00;99.90
9768;DHT22;4923;52.520;13.494;2023-10-09T02:06:59;10.00;99.90
9768;DHT22;4923;52.520;13.494;2023-10-09T02:09:52;10.00;99.90
9768;DHT22;4923;52.520;13.494;2023-10-09T02:12:39;10.00;99.90
9768;DHT22;4923;52.520;13.494;2023-10-09T02:15:29;10.00;99.90
9768;DHT22;4923;52.520;13.494;2023-10-09T02:18:31;10.00;99.90
9768;DHT22;4923;52.520;13.494;2023-10-09T02:21:38;10.00;99.90
9768;DHT22;4923;52.520;13.494;2023-10-09T02:24:27;10.10;99.90
9768;DHT22;4923;52.520;13.494;2023-10-09T02:27:27;10.10;99.90
9768;DHT22;4923;52.520;13.494;2023-10-09T02:30:33;10.10;99.90
9768;DHT22;4923;52.520;13.494;2023-10-09T02:33:20;10.10;99.90
9768;DHT22;4923;52.520;13.494;2023-10-09T02:36:13;10.10;99.90
9768;DHT22;4923;52.520;13.494;2023-10-09T02:39:00;10.20;99.90
9768;DHT22;4923;52.520;13.494;2023-10-09T02:41:51;10.20;99.90
9768;DHT22;4923;52.520;13.494;2023-10-09T02:44:44;10.30;99.90
9768;DHT22;4923;52.520;13.494;2023-10-09T02:47:36;10.30;99.90
9768;DHT22;4923;52.520;13.494;2023-10-09T02:50:25;10.30;99.90
9768;DHT22;4923;52.520;13.494;2023-10-09T02:53:14;10.30;99.90
9768;DHT22;4923;52.520;13.494;2023-10-09T02:56:05;10.30;99.90
9768;DHT22;4923;52.520;13.494;2023-10-09T02:58:58;10.30;99.90
9768;DHT22;4923;52.520;13.494;2023-10-09T03:01:51;10.20;99.90
9768;DHT22;4923;52.520;13.494;2023-10-09T03:04:40;10.20;99.90
9768;DHT22;4923;52.520;13.494;2023-10-09T03:07:27;10.20;99.90
9768;DHT22;4923;52.520;13.494;2023-10-09T03:10:14;10.20;99.90
9768;DHT22;4923;52.520;13.494;2023-10-09T03:13:03;10.20;99.90
9768;DHT22;4923;52.520;13.494;2023-10-09T03:15:51;10.20;99.90
9768;DHT22;4923;52.520;13.494;2023-10-09T03:18:38;10.30;99.90
9768;DHT22;4923;52.520;13.494;2023-10-09T03:21:26;10.30;99.90
9768;DHT22;4923;52.520;13.494;2023-10-09T03:24:13;10.30;99.90
9768;DHT22;4923;52.520;13.494;2023-10-09T03:27:01;10.30;99.90
9768;DHT22;4923;52.520;13.494;2023-10-09T03:29:48;10.30;99.90
9768;DHT22;4923;52.520;13.494;2023-10-09T03:32:39;10.30;99.90
9768;DHT22;4923;52.520;13.494;2023-10-09T03:35:26;10.30;99.90
9768;DHT22;4923;52.520;13.494;2023-10-09T03:38:14;10.30;99.90
9768;DHT22;4923;52.520;13.494;2023-10-09T03:41:05;10.30;99.90
9768;DHT22;4923;52.520;13.494;2023-10-09T03:43:53;10.20;99.90
9768;DHT22;4923;52.520;13.494;2023-10-09T03:46:40;10.20;99.90
9768;DHT22;4923;52.520;13.494;2023-10-09T03:49:30;10.30;99.90
9768;DHT22;4923;52.520;13.494;2023-10-09T03:52:17;10.30;99.90
9768;DHT22;4923;52.520;13.494;2023-10-09T03:55:07;10.20;99.90
9768;DHT22;4923;52.520;13.494;2023-10-09T03:58:01;10.20;99.90
9768;DHT22;4923;52.520;13.494;2023-10-09T04:00:47;10.20;99.90
9768;DHT22;4923;52.520;13.494;2023-10-09T04:03:35;10.20;99.90
9768;DHT22;4923;52.520;13.494;2023-10-09T04:06:22;10.20;99.90
9768;DHT22;4923;52.520;13.494;2023-10-09T04:09:14;10.10;99.90
9768;DHT22;4923;52.520;13.494;2023-10-09T04:12:14;10.10;99.90
9768;DHT22;4923;52.520;13.494;2023-10-09T04:15:10;10.10;99.90
9768;DHT22;4923;52.520;13.494;2023-10-09T04:18:01;10.10;99.90
9768;DHT22;4923;52.520;13.494;2023-10-09T04:20:49;10.00;99.90
9768;DHT22;4923;52.520;13.494;2023-10-09T04:23:53;10.00;99.90
9768;DHT22;4923;52.520;13.494;2023-10-09T04:27:08;10.00;99.90
9768;DHT22;4923;52.520;13.494;2023-10-09T04:29:56;10.00;99.90
9768;DHT22;4923;52.520;13.494;2023-10-09T04:32:46;10.00;99.90
9768;DHT22;4923;52.520;13.494;2023-10-09T04:35:35;10.00;99.90
9768;DHT22;4923;52.520;13.494;2023-10-09T04:38:23;10.00;99.90
9768;DHT22;4923;52.520;13.494;2023-10-09T04:41:10;10.10;99.90
9768;DHT22;4923;52.520;13.494;2023-10-09T04:44:08;10.00;99.90
9768;DHT22;4923;52.520;13.494;2023-10-09T04:47:06;10.00;99.90
9768;DHT22;4923;52.520;13.494;2023-10-09T04:50:05;10.00;99.90
9768;DHT22;4923;52.520;13.494;2023-10-09T04:52:54;10.00;99.90
9768;DHT22;4923;52.520;13.494;2023-10-09T04:55:41;10.10;99.90
9768;DHT22;4923;52.520;13.494;2023-10-09T04:58:30;10.10;99.90
9768;DHT22;4923;52.520;13.494;2023-10-09T05:01:18;10.10;99.90
9768;DHT22;4923;52.520;13.494;2023-10-09T05:04:23;10.10;99.90
9768;DHT22;4923;52.520;13.494;2023-10-09T05:07:24;10.10;99.90
9768;DHT22;4923;52.520;13.494;2023-10-09T05:10:32;10.10;99.90
9768;DHT22;4923;52.520;13.494;2023-10-09T05:13:17;10.10;99.90
9768;DHT22;4923;52.520;13.494;2023-10-09T05:16:24;10.00;99.90
9768;DHT22;4923;52.520;13.494;2023-10-09T05:19:11;10.10;99.90
9768;DHT22;4923;52.520;13.494;2023-10-09T05:22:16;10.00;99.90
9768;DHT22;4923;52.520;13.494;2023-10-09T05:25:15;10.00;99.90
9768;DHT22;4923;52.520;13.494;2023-10-09T05:28:16;10.00;99.90
9768;DHT22;4923;52.520;13.494;2023-10-09T05:31:16;9.90;99.90
9768;DHT22;4923;52.520;13.494;2023-10-09T05:34:17;10.00;99.90
9768;DHT22;4923;52.520;13.494;2023-10-09T05:37:06;10.00;99.90
9768;DHT22;4923;52.520;13.494;2023-10-09T05:40:05;10.00;99.90
9768;DHT22;4923;52.520;13.494;2023-10-09T05:43:08;10.10;99.90
9768;DHT22;4923;52.520;13.494;2023-10-09T05:46:14;10.00;99.90
9768;DHT22;4923;52.520;13.494;2023-10-09T05:49:01;10.00;99.90
9768;DHT22;4923;52.520;13.494;2023-10-09T05:51:55;10.00;99.90
9768;DHT22;4923;52.520;13.494;2023-10-09T05:55:03;10.00;99.90
9768;DHT22;4923;52.520;13.494;2023-10-09T05:58:06;10.10;99.90
9768;DHT22;4923;52.520;13.494;2023-10-09T06:01:09;10.10;99.90
9768;DHT22;4923;52.520;13.494;2023-10-09T06:04:14;10.20;99.90
9768;DHT22;4923;52.520;13.494;2023-10-09T06:07:02;10.20;99.90
9768;DHT22;4923;52.520;13.494;2023-10-09T06:09:58;10.20;99.90
9768;DHT22;4923;52.520;13.494;2023-10-09T06:12:57;10.20;99.90
9768;DHT22;4923;52.520;13.494;2023-10-09T06:15:49;10.20;99.90
9768;DHT22;4923;52.520;13.494;2023-10-09T06:18:55;10.30;99.90
9768;DHT22;4923;52.520;13.494;2023-10-09T06:21:54;10.30;99.90
9768;DHT22;4923;52.520;13.494;2023-10-09T06:25:15;10.30;99.90
9768;DHT22;4923;52.520;13.494;2023-10-09T06:28:05;10.40;99.90
9768;DHT22;4923;52.520;13.494;2023-10-09T06:30:52;10.50;99.90
9768;DHT22;4923;52.520;13.494;2023-10-09T06:33:39;10.50;99.90
9768;DHT22;4923;52.520;13.494;2023-10-09T06:36:45;10.60;99.90
9768;DHT22;4923;52.520;13.494;2023-10-09T06:39:38;10.60;99.90
9768;DHT22;4923;52.520;13.494;2023-10-09T06:42:55;10.70;99.90
9768;DHT22;4923;52.520;13.494;2023-10-09T06:45:43;10.80;99.90
9768;DHT22;4923;52.520;13.494;2023-10-09T06:48:31;10.90;99.90
9768;DHT22;4923;52.520;13.494;2023-10-09T06:51:41;11.00;99.90
9768;DHT22;4923;52.520;13.494;2023-10-09T06:54:28;10.90;99.90
9768;DHT22;4923;52.520;13.494;2023-10-09T06:57:23;11.00;99.90
9768;DHT22;4923;52.520;13.494;2023-10-09T07:00:27;11.00;99.90
9768;DHT22;4923;52.520;13.494;2023-10-09T07:03:33;11.10;99.90
9768;DHT22;4923;52.520;13.494;2023-10-09T07:06:21;11.10;99.90
9768;DHT22;4923;52.520;13.494;2023-10-09T07:09:10;11.30;99.90
9768;DHT22;4923;52.520;13.494;2023-10-09T07:12:05;11.30;99.90
9768;DHT22;4923;52.520;13.494;2023-10-09T07:14:55;11.40;99.90
9768;DHT22;4923;52.520;13.494;2023-10-09T07:18:08;11.50;99.90
9768;DHT22;4923;52.520;13.494;2023-10-09T07:21:14;11.60;99.90
9768;DHT22;4923;52.520;13.494;2023-10-09T07:24:12;11.70;99.90
9768;DHT22;4923;52.520;13.494;2023-10-09T07:27:03;11.80;99.90
9768;DHT22;4923;52.520;13.494;2023-10-09T07:29:59;11.90;99.90
9768;DHT22;4923;52.520;13.494;2023-10-09T07:32:46;11.90;99.90
9768;DHT22;4923;52.520;13.494;2023-10-09T07:35:34;11.90;99.90
9768;DHT22;4923;52.520;13.494;2023-10-09T07:38:33;11.90;99.90
9768;DHT22;4923;52.520;13.494;2023-10-09T07:41:21;12.10;99.90
9768;DHT22;4923;52.520;13.494;2023-10-09T07:44:24;12.10;99.90
9768;DHT22;4923;52.520;13.494;2023-10-09T07:47:23;12.20;99.90
9768;DHT22;4923;52.520;13.494;2023-10-09T07:50:35;12.10;99.90
9768;DHT22;4923;52.520;13.494;2023-10-09T07:53:26;12.00;99.90
9768;DHT22;4923;52.520;13.494;2023-10-09T07:56:16;12.10;99.90
9768;DHT22;4923;52.520;13.494;2023-10-09T07:59:07;12.10;99.90
9768;DHT22;4923;52.520;13.494;2023-10-09T08:01:56;12.10;99.90
9768;DHT22;4923;52.520;13.494;2023-10-09T08:04:48;12.00;99.90
9768;DHT22;4923;52.520;13.494;2023-10-09T08:07:34;12.10;99.90
9768;DHT22;4923;52.520;13.494;2023-10-09T08:10:21;12.10;99.90
9768;DHT22;4923;52.520;13.494;2023-10-09T08:13:35;12.20;99.90
9768;DHT22;4923;52.520;13.494;2023-10-09T08:16:42;12.10;99.90
9768;DHT22;4923;52.520;13.494;2023-10-09T08:19:29;12.20;99.90
9768;DHT22;4923;52.520;13.494;2023-10-09T08:22:26;12.20;99.90
9768;DHT22;4923;52.520;13.494;2023-10-09T08:25:36;12.10;99.90
9768;DHT22;4923;52.520;13.494;2023-10-09T08:28:44;12.20;99.90
9768;DHT22;4923;52.520;13.494;2023-10-09T08:31:31;12.20;99.90
9768;DHT22;4923;52.520;13.494;2023-10-09T08:34:30;12.10;99.90
9768;DHT22;4923;52.520;13.494;2023-10-09T08:37:34;12.00;99.90
9768;DHT22;4923;52.520;13.494;2023-10-09T08:40:20;12.00;99.90
9768;DHT22;4923;52.520;13.494;2023-10-09T08:43:13;12.10;99.90
9768;DHT22;4923;52.520;13.494;2023-10-09T08:46:02;12.10;99.90
9768;DHT22;4923;52.520;13.494;2023-10-09T08:48:51;12.10;99.90
9768;DHT22;4923;52.520;13.494;2023-10-09T08:51:40;12.20;99.90
9768;DHT22;4923;52.520;13.494;2023-10-09T08:54:27;12.20;99.90
9768;DHT22;4923;52.520;13.494;2023-10-09T08:57:18;12.20;99.90
9768;DHT22;4923;52.520;13.494;2023-10-09T09:00:06;12.20;99.90
9768;DHT22;4923;52.520;13.494;2023-10-09T09:02:58;12.20;99.90
9768;DHT22;4923;52.520;13.494;2023-10-09T09:05:47;12.20;99.90
9768;DHT22;4923;52.520;13.494;2023-10-09T09:08:35;12.20;99.90
9768;DHT22;4923;52.520;13.494;2023-10-09T09:11:22;12.20;99.90
9768;DHT22;4923;52.520;13.494;2023-10-09T09:14:10;12.40;99.90
9768;DHT22;4923;52.520;13.494;2023-10-09T09:17:04;12.60;99.90
9768;DHT22;4923;52.520;13.494;2023-10-09T09:19:58;12.70;99.90
9768;DHT22;4923;52.520;13.494;2023-10-09T09:22:51;12.90;99.90
9768;DHT22;4923;52.520;13.494;2023-10-09T09:25:41;13.10;99.90
9768;DHT22;4923;52.520;13.494;2023-10-09T09:28:30;13.40;99.90
9768;DHT22;4923;52.520;13.494;2023-10-09T09:31:24;13.40;99.90
9768;DHT22;4923;52.520;13.494;2023-10-09T09:34:11;13.50;99.90
9768;DHT22;4923;52.520;13.494;2023-10-09T09:37:04;13.60;99.90
9768;DHT22;4923;52.520;13.494;2023-10-09T09:39:52;13.70;99.90
9768;DHT22;4923;52.520;13.494;2023-10-09T09:42:39;13.80;99.90
9768;DHT22;4923;52.520;13.494;2023-10-09T09:45:32;13.80;99.90
9768;DHT22;4923;52.520;13.494;2023-10-09T09:48:19;13.80;99.90
9768;DHT22;4923;52.520;13.494;2023-10-09T09:51:06;13.80;99.90
9768;DHT22;4923;52.520;13.494;2023-10-09T09:53:55;13.70;99.90
9768;DHT22;4923;52.520;13.494;2023-10-09T09:56:44;13.80;99.90
9768;DHT22;4923;52.520;13.494;2023-10-09T09:59:39;13.90;99.90
9768;DHT22;4923;52.520;13.494;2023-10-09T10:02:37;13.60;99.90
9768;DHT22;4923;52.520;13.494;2023-10-09T10:05:27;13.60;99.90
9768;DHT22;4923;52.520;13.494;2023-10-09T10:08:16;13.50;99.90
9768;DHT22;4923;52.520;13.494;2023-10-09T10:11:06;13.60;99.90
9768;DHT22;4923;52.520;13.494;2023-10-09T10:13:59;13.60;99.90
9768;DHT22;4923;52.520;13.494;2023-10-09T10:17:06;13.50;99.90
9768;DHT22;4923;52.520;13.494;2023-10-09T10:20:05;13.50;99.90
9768;DHT22;4923;52.520;13.494;2023-10-09T10:23:15;13.50;99.90
9768;DHT22;4923;52.520;13.494;2023-10-09T10:26:22;13.60;99.90
9768;DHT22;4923;52.520;13.494;2023-10-09T10:29:15;13.60;99.90
9768;DHT22;4923;52.520;13.494;2023-10-09T10:32:09;13.60;99.90
9768;DHT22;4923;52.520;13.494;2023-10-09T10:34:56;13.60;99.90
9768;DHT22;4923;52.520;13.494;2023-10-09T10:37:43;13.70;99.90
9768;DHT22;4923;52.520;13.494;2023-10-09T10:40:36;13.70;99.90
9768;DHT22;4923;52.520;13.494;2023-10-09T10:43:26;13.80;99.90
9768;DHT22;4923;52.520;13.494;2023-10-09T10:46:32;14.00;99.90
9768;DHT22;4923;52.520;13.494;2023-10-09T10:49:23;14.30;99.90
9768;DHT22;4923;52.520;13.494;2023-10-09T10:52:22;14.60;99.90
9768;DHT22;4923;52.520;13.494;2023-10-09T10:55:21;14.60;99.90
9768;DHT22;4923;52.520;13.494;2023-10-09T10:58:26;14.60;99.90
9768;DHT22;4923;52.520;13.494;2023-10-09T11:01:21;14.40;99.90
9768;DHT22;4923;52.520;13.494;2023-10-09T11:04:12;14.40;99.90
9768;DHT22;4923;52.520;13.494;2023-10-09T11:07:00;14.40;99.90
9768;DHT22;4923;52.520;13.494;2023-10-09T11:09:53;14.40;99.90
9768;DHT22;4923;52.520;13.494;2023-10-09T11:12:56;14.50;99.90
9768;DHT22;4923;52.520;13.494;2023-10-09T11:15:58;14.50;99.90
9768;DHT22;4923;52.520;13.494;2023-10-09T11:19:00;14.30;99.90
9768;DHT22;4923;52.520;13.494;2023-10-09T11:21:59;14.40;99.90
9768;DHT22;4923;52.520;13.494;2023-10-09T11:25:00;14.50;99.90
9768;DHT22;4923;52.520;13.494;2023-10-09T11:27:58;14.50;99.90
9768;DHT22;4923;52.520;13.494;2023-10-09T11:31:08;14.30;99.90
9768;DHT22;4923;52.520;13.494;2023-10-09T11:33:56;14.30;99.90
9768;DHT22;4923;52.520;13.494;2023-10-09T11:36:47;14.30;99.90
9768;DHT22;4923;52.520;13.494;2023-10-09T11:39:39;14.30;99.90
9768;DHT22;4923;52.520;13.494;2023-10-09T11:42:36;14.30;99.90
9768;DHT22;4923;52.520;13.494;2023-10-09T11:45:25;14.50;99.90
9768;DHT22;4923;52.520;13.494;2023-10-09T11:48:19;14.50;99.90
9768;DHT22;4923;52.520;13.494;2023-10-09T11:51:12;14.40;99.90
9768;DHT22;4923;52.520;13.494;2023-10-09T11:54:05;14.50;99.90
9768;DHT22;4923;52.520;13.494;2023-10-09T11:56:54;15.00;99.90
9768;DHT22;4923;52.520;13.494;2023-10-09T11:59:41;15.20;99.90
9768;DHT22;4923;52.520;13.494;2023-10-09T12:02:29;15.30;99.90
9768;DHT22;4923;52.520;13.494;2023-10-09T12:05:18;15.20;99.90
9768;DHT22;4923;52.520;13.494;2023-10-09T12:08:05;14.90;99.90
9768;DHT22;4923;52.520;13.494;2023-10-09T12:10:54;14.80;99.90
9768;DHT22;4923;52.520;13.494;2023-10-09T12:13:42;14.90;99.90
9768;DHT22;4923;52.520;13.494;2023-10-09T12:16:28;15.00;99.90
9768;DHT22;4923;52.520;13.494;2023-10-09T12:19:18;15.20;99.90
9768;DHT22;4923;52.520;13.494;2023-10-09T12:22:07;15.30;99.90
9768;DHT22;4923;52.520;13.494;2023-10-09T12:24:56;15.40;99.90
9768;DHT22;4923;52.520;13.494;2023-10-09T12:27:43;15.50;99.90
9768;DHT22;4923;52.520;13.494;2023-10-09T12:30:30;15.50;99.90
9768;DHT22;4923;52.520;13.494;2023-10-09T12:33:17;15.40;99.90
9768;DHT22;4923;52.520;13.494;2023-10-09T12:36:05;15.30;99.90
9768;DHT22;4923;52.520;13.494;2023-10-09T12:38:53;15.30;99.90
9768;DHT22;4923;52.520;13.494;2023-10-09T12:41:44;15.30;99.90
9768;DHT22;4923;52.520;13.494;2023-10-09T12:44:31;15.30;99.90
9768;DHT22;4923;52.520;13.494;2023-10-09T12:47:20;15.20;99.90
9768;DHT22;4923;52.520;13.494;2023-10-09T12:50:07;15.10;99.90
9768;DHT22;4923;52.520;13.494;2023-10-09T12:53:00;14.70;99.90
9768;DHT22;4923;52.520;13.494;2023-10-09T12:55:53;14.40;99.90
9768;DHT22;4923;52.520;13.494;2023-10-09T12:58:42;14.10;99.90
9768;DHT22;4923;52.520;13.494;2023-10-09T13:01:38;13.90;99.90
9768;DHT22;4923;52.520;13.494;2023-10-09T13:04:28;14.00;99.90
9768;DHT22;4923;52.520;13.494;2023-10-09T13:07:17;14.00;99.90
9768;DHT22;4923;52.520;13.494;2023-10-09T13:10:08;14.00;99.90
9768;DHT22;4923;52.520;13.494;2023-10-09T13:12:59;14.00;99.90
9768;DHT22;4923;52.520;13.494;2023-10-09T13:15:46;14.00;99.90
9768;DHT22;4923;52.520;13.494;2023-10-09T13:18:32;13.90;99.90
9768;DHT22;4923;52.520;13.494;2023-10-09T13:21:21;13.80;99.90
9768;DHT22;4923;52.520;13.494;2023-10-09T13:24:08;13.80;99.90
9768;DHT22;4923;52.520;13.494;2023-10-09T13:26:58;13.90;99.90
9768;DHT22;4923;52.520;13.494;2023-10-09T13:29:46;14.10;99.90
9768;DHT22;4923;52.520;13.494;2023-10-09T13:32:33;14.10;99.90
9768;DHT22;4923;52.520;13.494;2023-10-09T13:35:21;14.10;99.90
9768;DHT22;4923;52.520;13.494;2023-10-09T13:38:23;14.00;99.90
9768;DHT22;4923;52.520;13.494;2023-10-09T13:41:10;13.80;99.90
9768;DHT22;4923;52.520;13.494;2023-10-09T13:44:00;13.70;99.90
9768;DHT22;4923;52.520;13.494;2023-10-09T13:46:50;13.80;99.90
9768;DHT22;4923;52.520;13.494;2023-10-09T13:49:37;13.80;99.90
9768;DHT22;4923;52.520;13.494;2023-10-09T13:52:26;13.70;99.90
9768;DHT22;4923;52.520;13.494;2023-10-09T13:55:13;13.70;99.90
9768;DHT22;4923;52.520;13.494;2023-10-09T13:58:02;13.70;99.90
9768;DHT22;4923;52.520;13.494;2023-10-09T14:00:49;13.70;99.90
9768;DHT22;4923;52.520;13.494;2023-10-09T14:03:40;13.60;99.90
9768;DHT22;4923;52.520;13.494;2023-10-09T14:06:28;13.60;99.90
9768;DHT22;4923;52.520;13.494;2023-10-09T14:09:18;13.50;99.90
9768;DHT22;4923;52.520;13.494;2023-10-09T14:12:21;13.50;99.90
9768;DHT22;4923;52.520;13.494;2023-10-09T14:15:10;13.60;99.90
9768;DHT22;4923;52.520;13.494;2023-10-09T14:18:03;13.70;99.90
9768;DHT22;4923;52.520;13.494;2023-10-09T14:20:55;13.70;99.90
9768;DHT22;4923;52.520;13.494;2023-10-09T14:23:42;13.60;99.90
9768;DHT22;4923;52.520;13.494;2023-10-09T14:26:32;13.50;99.90
9768;DHT22;4923;52.520;13.494;2023-10-09T14:29:20;13.50;99.90
9768;DHT22;4923;52.520;13.494;2023-10-09T14:32:06;13.60;99.90
9768;DHT22;4923;52.520;13.494;2023-10-09T14:34:58;13.50;99.90
9768;DHT22;4923;52.520;13.494;2023-10-09T14:37:47;13.50;99.90
9768;DHT22;4923;52.520;13.494;2023-10-09T14:40:34;13.50;99.90
9768;DHT22;4923;52.520;13.494;2023-10-09T14:43:27;13.40;99.90
9768;DHT22;4923;52.520;13.494;2023-10-09T14:46:19;13.40;99.90
9768;DHT22;4923;52.520;13.494;2023-10-09T14:49:10;13.20;99.90
9768;DHT22;4923;52.520;13.494;2023-10-09T14:51:59;13.20;99.90
9768;DHT22;4923;52.520;13.494;2023-10-09T14:54:48;13.20;99.90
9768;DHT22;4923;52.520;13.494;2023-10-09T14:57:37;13.20;99.90
9768;DHT22;4923;52.520;13.494;2023-10-09T15:00:23;13.20;99.90
9768;DHT22;4923;52.520;13.494;2023-10-09T15:03:13;13.10;99.90
9768;DHT22;4923;52.520;13.494;2023-10-09T15:06:00;13.10;99.90
9768;DHT22;4923;52.520;13.494;2023-10-09T15:08:47;13.10;99.90
9768;DHT22;4923;52.520;13.494;2023-10-09T15:11:36;13.00;99.90
9768;DHT22;4923;52.520;13.494;2023-10-09T15:14:24;13.00;99.90
9768;DHT22;4923;52.520;13.494;2023-10-09T15:17:11;13.00;99.90
9768;DHT22;4923;52.520;13.494;2023-10-09T15:20:01;13.00;99.90
9768;DHT22;4923;52.520;13.494;2023-10-09T15:22:56;13.00;99.90
9768;DHT22;4923;52.520;13.494;2023-10-09T15:25:42;12.90;99.90
9768;DHT22;4923;52.520;13.494;2023-10-09T15:28:32;12.80;99.90
9768;DHT22;4923;52.520;13.494;2023-10-09T15:31:19;12.80;99.90
9768;DHT22;4923;52.520;13.494;2023-10-09T15:34:06;12.80;99.90
9768;DHT22;4923;52.520;13.494;2023-10-09T15:36:54;12.80;99.90
9768;DHT22;4923;52.520;13.494;2023-10-09T15:39:41;12.80;99.90
9768;DHT22;4923;52.520;13.494;2023-10-09T15:42:28;12.70;99.90
9768;DHT22;4923;52.520;13.494;2023-10-09T15:45:16;12.60;99.90
9768;DHT22;4923;52.520;13.494;2023-10-09T15:48:05;12.50;99.90
9768;DHT22;4923;52.520;13.494;2023-10-09T15:50:53;12.40;99.90
9768;DHT22;4923;52.520;13.494;2023-10-09T15:53:41;12.40;99.90
9768;DHT22;4923;52.520;13.494;2023-10-09T15:56:28;12.40;99.90
9768;DHT22;4923;52.520;13.494;2023-10-09T15:59:15;12.30;99.90
9768;DHT22;4923;52.520;13.494;2023-10-09T16:02:03;12.40;99.90
9768;DHT22;4923;52.520;13.494;2023-10-09T16:04:50;12.30;99.90
9768;DHT22;4923;52.520;13.494;2023-10-09T16:07:38;12.30;99.90
9768;DHT22;4923;52.520;13.494;2023-10-09T16:10:25;12.30;99.90
9768;DHT22;4923;52.520;13.494;2023-10-09T16:13:12;12.20;99.90
9768;DHT22;4923;52.520;13.494;2023-10-09T16:15:59;12.20;99.90
9768;DHT22;4923;52.520;13.494;2023-10-09T16:18:48;12.20;99.90
9768;DHT22;4923;52.520;13.494;2023-10-09T16:21:35;12.10;99.90
9768;DHT22;4923;52.520;13.494;2023-10-09T16:24:22;12.10;99.90
9768;DHT22;4923;52.520;13.494;2023-10-09T16:27:10;12.00;99.90
9768;DHT22;4923;52.520;13.494;2023-10-09T16:29:59;12.00;99.90
9768;DHT22;4923;52.520;13.494;2023-10-09T16:32:51;12.00;99.90
9768;DHT22;4923;52.520;13.494;2023-10-09T16:35:39;12.00;99.90
9768;DHT22;4923;52.520;13.494;2023-10-09T16:38:27;11.90;99.90
9768;DHT22;4923;52.520;13.494;2023-10-09T16:41:14;12.00;99.90
9768;DHT22;4923;52.520;13.494;2023-10-09T16:44:02;11.90;99.90
9768;DHT22;4923;52.520;13.494;2023-10-09T16:46:50;11.90;99.90
9768;DHT22;4923;52.520;13.494;2023-10-09T16:49:39;11.90;99.90
9768;DHT22;4923;52.520;13.494;2023-10-09T16:52:28;11.80;99.90
9768;DHT22;4923;52.520;13.494;2023-10-09T16:55:16;11.80;99.90
9768;DHT22;4923;52.520;13.494;2023-10-09T16:58:04;11.90;99.90
9768;DHT22;4923;52.520;13.494;2023-10-09T17:00:52;11.90;99.90
9768;DHT22;4923;52.520;13.494;2023-10-09T17:03:41;11.80;99.90
9768;DHT22;4923;52.520;13.494;2023-10-09T17:06:28;11.80;99.90
9768;DHT22;4923;52.520;13.494;2023-10-09T17:09:18;11.80;99.90
9768;DHT22;4923;52.520;13.494;2023-10-09T17:12:06;11.80;99.90
9768;DHT22;4923;52.520;13.494;2023-10-09T17:14:53;11.80;99.90
9768;DHT22;4923;52.520;13.494;2023-10-09T17:17:42;11.80;99.90
9768;DHT22;4923;52.520;13.494;2023-10-09T17:20:31;11.80;99.90
9768;DHT22;4923;52.520;13.494;2023-10-09T17:23:18;11.80;99.90
9768;DHT22;4923;52.520;13.494;2023-10-09T17:26:06;11.70;99.90
9768;DHT22;4923;52.520;13.494;2023-10-09T17:28:56;11.70;99.90
9768;DHT22;4923;52.520;13.494;2023-10-09T17:31:43;11.80;99.90
9768;DHT22;4923;52.520;13.494;2023-10-09T17:34:30;11.70;99.90
9768;DHT22;4923;52.520;13.494;2023-10-09T17:37:19;11.70;99.90
9768;DHT22;4923;52.520;13.494;2023-10-09T17:40:09;11.70;99.90
9768;DHT22;4923;52.520;13.494;2023-10-09T17:42:57;11.70;99.90
9768;DHT22;4923;52.520;13.494;2023-10-09T17:45:45;11.60;99.90
9768;DHT22;4923;52.520;13.494;2023-10-09T17:48:32;11.60;99.90
9768;DHT22;4923;52.520;13.494;2023-10-09T17:51:19;11.70;99.90
9768;DHT22;4923;52.520;13.494;2023-10-09T17:54:06;11.60;99.90
9768;DHT22;4923;52.520;13.494;2023-10-09T17:56:54;11.60;99.90
9768;DHT22;4923;52.520;13.494;2023-10-09T17:59:46;11.60;99.90
9768;DHT22;4923;52.520;13.494;2023-10-09T18:02:33;11.60;99.90
9768;DHT22;4923;52.520;13.494;2023-10-09T18:05:20;11.60;99.90
9768;DHT22;4923;52.520;13.494;2023-10-09T18:08:07;11.60;99.90
9768;DHT22;4923;52.520;13.494;2023-10-09T18:11:00;11.60;99.90
9768;DHT22;4923;52.520;13.494;2023-10-09T18:13:47;11.60;99.90
9768;DHT22;4923;52.520;13.494;2023-10-09T18:16:35;11.50;99.90
9768;DHT22;4923;52.520;13.494;2023-10-09T18:19:23;11.50;99.90
9768;DHT22;4923;52.520;13.494;2023-10-09T18:22:10;11.40;99.90